Time;durP1;ratioP1;P1;durP2;ratioP2;P2;SDS_P1;SDS_P2;PMS_P1;PMS_P2;Temp;Humidity;BMP_temperature;BMP_pressure;BME280_temperature;BME280_humidity;BME280_pressure;Samples;Min_cycle;Max_cycle;Signal;HPM_P1;HPM_P2
2023/05/29 00:00:23;;;;;;;9.27;3.72;;;;;;;;;;5059306;28;20029;-74
2023/05/29 00:02:50;;;;;;;7.13;3.78;;;;;;;;;;5060841;28;20025;-74
2023/05/29 00:05:18;;;;;;;8.55;3.95;;;;;;;;;;5055262;28;20510;-74
2023/05/29 00:07:44;;;;;;;9.18;3.50;;;;;;;;;;5063970;28;20021;-74
2023/05/29 00:10:11;;;;;;;9.13;4.25;;;;;;;;;;5063477;28;20029;-74
2023/05/29 00:12:37;;;;;;;10.15;4.00;;;;;;;;;;5055102;28;20028;-74
2023/05/29 00:15:04;;;;;;;9.10;4.28;;;;;;;;;;5078388;28;20020;-74
2023/05/29 00:17:33;;;;;;;11.23;4.53;;;;;;;;;;5056153;28;20049;-74
2023/05/29 00:20:01;;;;;;;11.40;4.43;;;;;;;;;;5059933;28;20077;-74
2023/05/29 00:22:27;;;;;;;8.40;4.78;;;;;;;;;;5052819;28;20021;-74
2023/05/29 00:24:53;;;;;;;9.43;3.67;;;;;;;;;;5058086;28;20024;-75
2023/05/29 00:27:19;;;;;;;9.85;3.83;;;;;;;;;;5048623;28;20033;-74
2023/05/29 00:29:45;;;;;;;9.35;3.97;;;;;;;;;;5066430;28;20418;-73
2023/05/29 00:32:12;;;;;;;11.75;4.47;;;;;;;;;;5061695;28;20111;-74
2023/05/29 00:34:38;;;;;;;8.75;3.55;;;;;;;;;;5067425;28;20019;-73
2023/05/29 00:37:04;;;;;;;5.65;3.70;;;;;;;;;;5060607;28;20475;-73
2023/05/29 00:39:30;;;;;;;13.02;3.60;;;;;;;;;;5071802;28;20551;-73
2023/05/29 00:41:57;;;;;;;10.70;4.22;;;;;;;;;;5072009;28;20039;-73
2023/05/29 00:44:23;;;;;;;7.25;3.85;;;;;;;;;;5066741;28;20107;-74
2023/05/29 00:46:52;;;;;;;8.43;3.95;;;;;;;;;;5071566;28;20063;-74
2023/05/29 00:49:18;;;;;;;9.57;4.00;;;;;;;;;;5071356;28;20131;-75
2023/05/29 00:51:45;;;;;;;5.85;3.63;;;;;;;;;;5068680;28;20082;-74
2023/05/29 00:54:12;;;;;;;8.55;3.40;;;;;;;;;;5072940;28;20029;-74
2023/05/29 00:56:44;;;;;;;9.27;3.40;;;;;;;;;;5061977;28;20024;-73
2023/05/29 00:59:12;;;;;;;6.68;3.67;;;;;;;;;;5058581;28;20028;-74
2023/05/29 01:01:39;;;;;;;16.30;3.70;;;;;;;;;;5060172;28;20053;-74
2023/05/29 01:04:09;;;;;;;7.60;2.92;;;;;;;;;;5062831;28;20965;-75
2023/05/29 01:06:36;;;;;;;8.38;4.38;;;;;;;;;;5063751;28;20035;-74
2023/05/29 01:09:03;;;;;;;9.30;3.75;;;;;;;;;;5066899;28;20024;-74
2023/05/29 01:11:41;;;;;;;12.95;4.35;;;;;;;;;;5070593;28;20097;-74
2023/05/29 01:14:09;;;;;;;7.80;3.58;;;;;;;;;;5067063;28;20467;-75
2023/05/29 01:16:44;;;;;;;9.85;3.63;;;;;;;;;;5081014;28;20024;-74
2023/05/29 01:19:24;;;;;;;7.65;3.28;;;;;;;;;;5092868;28;20025;-74
2023/05/29 01:21:59;;;;;;;9.52;3.80;;;;;;;;;;5065921;28;20033;-74
2023/05/29 01:24:40;;;;;;;7.32;3.67;;;;;;;;;;5058783;28;20485;-74
2023/05/29 01:27:10;;;;;;;9.07;3.10;;;;;;;;;;5068247;28;20343;-73
2023/05/29 01:29:38;;;;;;;8.23;3.70;;;;;;;;;;5053109;28;20049;-74
2023/05/29 01:32:05;;;;;;;8.77;3.47;;;;;;;;;;5054192;28;20078;-73
2023/05/29 01:34:32;;;;;;;9.27;3.42;;;;;;;;;;5055979;28;20036;-74
2023/05/29 01:36:58;;;;;;;7.85;3.28;;;;;;;;;;5064426;28;20378;-72
2023/05/29 01:39:25;;;;;;;11.10;3.65;;;;;;;;;;5061962;28;20029;-75
2023/05/29 01:41:52;;;;;;;8.07;3.92;;;;;;;;;;5050335;28;20021;-73
2023/05/29 01:44:18;;;;;;;9.48;4.30;;;;;;;;;;5052600;28;20017;-74
2023/05/29 01:46:45;;;;;;;6.00;3.08;;;;;;;;;;5061002;28;20032;-74
2023/05/29 01:49:12;;;;;;;10.73;3.60;;;;;;;;;;5057744;28;20036;-73
2023/05/29 01:51:41;;;;;;;9.35;3.40;;;;;;;;;;5074569;28;20402;-74
2023/05/29 01:54:07;;;;;;;8.68;3.25;;;;;;;;;;5064393;28;20054;-74
2023/05/29 01:56:34;;;;;;;7.10;3.50;;;;;;;;;;5078844;28;20028;-73
2023/05/29 01:59:02;;;;;;;6.18;3.38;;;;;;;;;;5073971;28;20060;-74
2023/05/29 02:01:28;;;;;;;7.43;3.53;;;;;;;;;;5057486;28;20059;-73
2023/05/29 02:03:54;;;;;;;9.07;3.75;;;;;;;;;;5067943;28;20044;-73
2023/05/29 02:06:20;;;;;;;9.43;4.05;;;;;;;;;;5067802;28;20032;-73
2023/05/29 02:08:47;;;;;;;9.13;3.65;;;;;;;;;;5060619;28;20035;-73
2023/05/29 02:11:13;;;;;;;14.43;3.83;;;;;;;;;;5057549;28;20591;-73
2023/05/29 02:13:39;;;;;;;5.53;3.38;;;;;;;;;;5057795;28;20033;-73
2023/05/29 02:16:05;;;;;;;9.88;3.25;;;;;;;;;;5062701;28;20052;-74
2023/05/29 02:18:32;;;;;;;11.82;3.88;;;;;;;;;;5054747;28;20058;-73
2023/05/29 02:20:58;;;;;;;11.52;3.63;;;;;;;;;;5057122;28;20021;-73
2023/05/29 02:23:24;;;;;;;17.05;4.40;;;;;;;;;;5059762;28;20142;-72
2023/05/29 02:25:50;;;;;;;11.07;3.63;;;;;;;;;;5051409;28;20036;-72
2023/05/29 02:28:16;;;;;;;10.68;3.13;;;;;;;;;;5062069;28;20425;-73
2023/05/29 02:30:42;;;;;;;9.75;3.88;;;;;;;;;;5060154;28;20506;-74
2023/05/29 02:33:08;;;;;;;11.30;3.83;;;;;;;;;;5058624;28;20055;-73
2023/05/29 02:35:34;;;;;;;11.05;3.30;;;;;;;;;;5061386;28;20479;-74
2023/05/29 02:38:00;;;;;;;8.20;3.78;;;;;;;;;;5066279;28;20037;-74
2023/05/29 02:40:26;;;;;;;9.38;3.90;;;;;;;;;;5054379;28;20414;-73
2023/05/29 02:42:53;;;;;;;7.97;3.13;;;;;;;;;;5063610;28;20025;-74
2023/05/29 02:45:19;;;;;;;9.25;4.07;;;;;;;;;;5069397;28;20090;-74
2023/05/29 02:47:45;;;;;;;8.10;3.38;;;;;;;;;;5059117;28;20382;-73
2023/05/29 02:50:14;;;;;;;6.20;3.50;;;;;;;;;;5065240;28;20067;-73
2023/05/29 02:52:40;;;;;;;8.18;3.58;;;;;;;;;;5064914;28;20035;-74
2023/05/29 02:55:07;;;;;;;8.50;3.00;;;;;;;;;;5076307;28;20404;-74
2023/05/29 02:57:33;;;;;;;11.60;3.83;;;;;;;;;;5066786;28;20458;-72
2023/05/29 03:00:00;;;;;;;9.48;3.75;;;;;;;;;;5062217;28;20044;-74
2023/05/29 03:02:26;;;;;;;10.10;3.65;;;;;;;;;;5068065;28;20036;-74
2023/05/29 03:04:53;;;;;;;7.15;3.70;;;;;;;;;;5049486;28;20025;-74
2023/05/29 03:07:20;;;;;;;5.93;3.80;;;;;;;;;;5056032;28;20036;-73
2023/05/29 03:09:46;;;;;;;8.00;3.92;;;;;;;;;;5052060;28;20036;-74
2023/05/29 03:12:12;;;;;;;6.68;3.20;;;;;;;;;;5058584;28;20033;-74
2023/05/29 03:14:38;;;;;;;9.82;3.38;;;;;;;;;;5053702;28;20486;-74
2023/05/29 03:17:05;;;;;;;6.38;3.42;;;;;;;;;;5070979;28;20033;-73
2023/05/29 03:19:32;;;;;;;8.50;3.33;;;;;;;;;;5057239;28;20529;-73
2023/05/29 03:21:58;;;;;;;8.02;3.30;;;;;;;;;;5051321;28;20028;-73
2023/05/29 03:24:24;;;;;;;10.98;3.88;;;;;;;;;;5057038;28;20056;-75
2023/05/29 03:26:50;;;;;;;8.85;3.67;;;;;;;;;;5066385;28;20099;-74
2023/05/29 03:29:17;;;;;;;7.32;3.38;;;;;;;;;;5056957;28;20048;-74
2023/05/29 03:31:43;;;;;;;8.50;3.60;;;;;;;;;;5068889;28;20059;-73
2023/05/29 03:34:09;;;;;;;8.18;4.47;;;;;;;;;;5062739;28;20021;-73
2023/05/29 03:36:38;;;;;;;11.60;3.80;;;;;;;;;;5080241;28;20032;-74
2023/05/29 03:39:04;;;;;;;6.70;4.00;;;;;;;;;;5054694;28;20028;-73
2023/05/29 03:41:31;;;;;;;12.35;4.43;;;;;;;;;;5066467;28;20428;-73
2023/05/29 03:43:57;;;;;;;11.38;3.90;;;;;;;;;;5060829;28;20390;-73
2023/05/29 03:46:23;;;;;;;12.50;4.07;;;;;;;;;;5062367;28;20025;-74
2023/05/29 03:48:49;;;;;;;17.15;3.97;;;;;;;;;;5058594;28;20021;-73
2023/05/29 03:51:15;;;;;;;11.20;4.60;;;;;;;;;;5058613;28;20029;-73
2023/05/29 03:53:41;;;;;;;8.80;3.33;;;;;;;;;;5070384;28;20020;-73
2023/05/29 03:56:07;;;;;;;11.23;3.95;;;;;;;;;;5053702;28;20039;-74
2023/05/29 03:58:33;;;;;;;10.00;4.07;;;;;;;;;;5055493;28;20024;-74
2023/05/29 04:00:59;;;;;;;11.32;3.60;;;;;;;;;;5066088;28;20032;-73
2023/05/29 04:03:26;;;;;;;13.25;4.20;;;;;;;;;;5055384;28;20050;-73
2023/05/29 04:05:52;;;;;;;10.25;3.55;;;;;;;;;;5060146;28;20025;-74
2023/05/29 04:08:18;;;;;;;13.70;4.40;;;;;;;;;;5073437;28;20029;-74
2023/05/29 04:10:44;;;;;;;9.40;3.70;;;;;;;;;;5062886;28;20028;-74
2023/05/29 04:13:10;;;;;;;9.13;3.90;;;;;;;;;;5072368;28;20025;-74
2023/05/29 04:15:37;;;;;;;9.15;3.10;;;;;;;;;;5070991;28;20017;-74
2023/05/29 04:18:04;;;;;;;10.52;3.72;;;;;;;;;;5056415;28;20032;-74
2023/05/29 04:20:30;;;;;;;10.60;3.38;;;;;;;;;;5068337;28;20180;-73
2023/05/29 04:22:56;;;;;;;7.93;4.03;;;;;;;;;;5061338;28;20530;-73
2023/05/29 04:25:23;;;;;;;12.10;3.95;;;;;;;;;;5058776;28;20032;-73
2023/05/29 04:27:50;;;;;;;7.63;3.10;;;;;;;;;;5066809;28;20074;-73
2023/05/29 04:30:17;;;;;;;9.98;3.75;;;;;;;;;;5069244;28;20578;-74
2023/05/29 04:32:43;;;;;;;9.65;3.95;;;;;;;;;;5060293;28;20028;-74
2023/05/29 04:35:10;;;;;;;9.48;4.25;;;;;;;;;;5070356;28;20118;-74
2023/05/29 04:37:39;;;;;;;13.50;3.90;;;;;;;;;;5067780;28;20489;-74
2023/05/29 04:40:10;;;;;;;4.65;2.88;;;;;;;;;;5064725;28;20025;-74
2023/05/29 04:42:36;;;;;;;10.63;3.78;;;;;;;;;;5067948;28;20021;-74
2023/05/29 04:45:05;;;;;;;9.45;3.25;;;;;;;;;;5065589;28;20041;-73
2023/05/29 04:47:32;;;;;;;9.60;3.60;;;;;;;;;;5062725;28;20032;-74
2023/05/29 04:50:00;;;;;;;13.20;4.85;;;;;;;;;;5070773;28;20081;-74
2023/05/29 04:52:26;;;;;;;10.23;3.47;;;;;;;;;;5062118;28;20028;-74
2023/05/29 04:54:52;;;;;;;10.60;3.85;;;;;;;;;;5075580;28;20502;-75
2023/05/29 04:57:18;;;;;;;13.93;4.22;;;;;;;;;;5067121;28;20038;-74
2023/05/29 04:59:44;;;;;;;9.30;3.28;;;;;;;;;;5058791;28;20407;-74
2023/05/29 05:02:11;;;;;;;10.90;3.83;;;;;;;;;;5061262;28;20064;-74
2023/05/29 05:04:37;;;;;;;11.32;4.45;;;;;;;;;;5071059;28;20070;-73
2023/05/29 05:07:04;;;;;;;8.90;4.55;;;;;;;;;;5072890;28;20024;-74
2023/05/29 05:09:31;;;;;;;11.73;3.72;;;;;;;;;;5074705;28;20036;-74
2023/05/29 05:11:58;;;;;;;8.65;3.70;;;;;;;;;;5070261;28;20016;-73
2023/05/29 05:14:24;;;;;;;11.48;4.07;;;;;;;;;;5076443;28;20079;-74
2023/05/29 05:16:50;;;;;;;9.82;3.55;;;;;;;;;;5072167;28;20525;-72
2023/05/29 05:19:17;;;;;;;9.57;4.15;;;;;;;;;;5057437;28;20486;-73
2023/05/29 05:21:43;;;;;;;7.80;3.90;;;;;;;;;;5062225;28;20033;-73
2023/05/29 05:24:09;;;;;;;17.77;4.55;;;;;;;;;;5066380;28;20029;-73
2023/05/29 05:26:35;;;;;;;12.02;3.63;;;;;;;;;;5059006;28;20040;-73
2023/05/29 05:29:01;;;;;;;13.55;4.28;;;;;;;;;;5054364;28;20032;-73
2023/05/29 05:31:28;;;;;;;9.32;4.82;;;;;;;;;;5058661;28;20059;-72
2023/05/29 05:33:54;;;;;;;10.88;3.72;;;;;;;;;;5060398;28;20028;-74
2023/05/29 05:36:21;;;;;;;10.82;4.20;;;;;;;;;;5064098;28;20500;-73
2023/05/29 05:38:47;;;;;;;14.07;4.10;;;;;;;;;;5061875;28;20048;-73
2023/05/29 05:41:13;;;;;;;15.25;4.75;;;;;;;;;;5063866;28;20090;-74
2023/05/29 05:43:39;;;;;;;10.32;4.40;;;;;;;;;;5061678;28;20060;-73
2023/05/29 05:46:05;;;;;;;8.77;3.70;;;;;;;;;;5057193;28;20035;-74
2023/05/29 05:48:31;;;;;;;11.43;4.10;;;;;;;;;;5064344;28;20044;-74
2023/05/29 05:50:57;;;;;;;12.13;4.35;;;;;;;;;;5060790;28;20020;-74
2023/05/29 05:53:24;;;;;;;14.15;4.53;;;;;;;;;;5076299;28;20568;-74
2023/05/29 05:55:51;;;;;;;12.85;5.68;;;;;;;;;;5063733;28;20063;-74
2023/05/29 05:58:17;;;;;;;11.10;4.20;;;;;;;;;;5060330;28;20071;-74
2023/05/29 06:00:43;;;;;;;15.73;4.55;;;;;;;;;;5056374;28;20394;-73
2023/05/29 06:03:09;;;;;;;14.30;4.63;;;;;;;;;;5053329;28;20025;-74
2023/05/29 06:05:37;;;;;;;9.25;4.45;;;;;;;;;;5057070;28;20013;-73
2023/05/29 06:08:03;;;;;;;12.85;3.95;;;;;;;;;;5055134;28;20504;-73
2023/05/29 06:10:29;;;;;;;13.07;5.13;;;;;;;;;;5059795;28;20020;-74
2023/05/29 06:12:56;;;;;;;8.60;4.50;;;;;;;;;;5063011;28;20494;-74
2023/05/29 06:15:22;;;;;;;10.85;4.40;;;;;;;;;;5064148;28;20027;-74
2023/05/29 06:17:51;;;;;;;11.40;4.18;;;;;;;;;;5054504;28;20483;-74
2023/05/29 06:20:17;;;;;;;12.40;4.53;;;;;;;;;;5054973;28;20021;-73
2023/05/29 06:22:43;;;;;;;11.32;4.28;;;;;;;;;;5058840;28;20033;-74
2023/05/29 06:25:11;;;;;;;8.82;4.13;;;;;;;;;;5051381;28;20021;-75
2023/05/29 06:27:37;;;;;;;13.60;4.50;;;;;;;;;;5060178;28;20021;-73
2023/05/29 06:30:03;;;;;;;9.98;4.07;;;;;;;;;;5052048;28;20060;-74
2023/05/29 06:32:31;;;;;;;9.68;4.85;;;;;;;;;;5061043;28;20044;-73
2023/05/29 06:34:57;;;;;;;17.27;5.03;;;;;;;;;;5058283;28;20367;-74
2023/05/29 06:37:23;;;;;;;9.90;4.55;;;;;;;;;;5061681;28;20025;-75
2023/05/29 06:39:49;;;;;;;9.52;4.80;;;;;;;;;;5058981;28;20379;-74
2023/05/29 06:42:16;;;;;;;18.20;5.97;;;;;;;;;;5068039;28;20483;-74
2023/05/29 06:44:42;;;;;;;16.25;6.15;;;;;;;;;;5057021;28;20445;-73
2023/05/29 06:47:08;;;;;;;12.32;5.03;;;;;;;;;;5065341;28;20082;-73
2023/05/29 06:49:34;;;;;;;11.40;5.03;;;;;;;;;;5055270;28;20029;-73
2023/05/29 06:52:00;;;;;;;15.18;5.57;;;;;;;;;;5057623;28;20477;-74
2023/05/29 06:54:26;;;;;;;12.77;5.88;;;;;;;;;;5056191;28;20032;-74
2023/05/29 06:56:56;;;;;;;14.50;5.28;;;;;;;;;;5061795;28;20116;-73
2023/05/29 06:59:22;;;;;;;14.27;5.93;;;;;;;;;;5054947;28;20029;-74
2023/05/29 07:01:49;;;;;;;12.55;5.35;;;;;;;;;;5056785;28;20733;-74
2023/05/29 07:04:15;;;;;;;17.08;6.60;;;;;;;;;;5055302;28;20029;-74
2023/05/29 07:06:41;;;;;;;14.27;6.38;;;;;;;;;;5050202;28;20111;-74
2023/05/29 07:09:08;;;;;;;15.48;6.05;;;;;;;;;;5054089;28;20025;-74
2023/05/29 07:11:34;;;;;;;13.95;5.90;;;;;;;;;;5053998;28;20029;-73
2023/05/29 07:14:00;;;;;;;14.73;5.88;;;;;;;;;;5056709;28;20017;-74
2023/05/29 07:16:26;;;;;;;12.05;5.55;;;;;;;;;;5053677;28;20025;-75
2023/05/29 07:18:52;;;;;;;13.23;5.43;;;;;;;;;;5051150;28;20103;-75
2023/05/29 07:21:20;;;;;;;11.35;5.22;;;;;;;;;;5065148;28;20028;-74
2023/05/29 07:23:46;;;;;;;14.23;6.68;;;;;;;;;;5049271;28;20022;-74
2023/05/29 07:26:12;;;;;;;15.25;5.88;;;;;;;;;;5059031;28;20427;-74
2023/05/29 07:28:38;;;;;;;11.75;5.68;;;;;;;;;;5064346;28;20024;-74
2023/05/29 07:31:05;;;;;;;17.88;6.10;;;;;;;;;;5069462;28;20499;-74
2023/05/29 07:33:31;;;;;;;14.88;6.22;;;;;;;;;;5073751;28;20067;-75
2023/05/29 07:35:57;;;;;;;10.25;5.82;;;;;;;;;;5075408;28;20025;-74
2023/05/29 07:38:23;;;;;;;11.02;5.03;;;;;;;;;;5067256;28;20505;-75
2023/05/29 07:40:49;;;;;;;12.15;5.53;;;;;;;;;;5060517;28;20112;-74
2023/05/29 07:43:16;;;;;;;9.95;5.15;;;;;;;;;;5061517;28;20460;-74
2023/05/29 07:45:42;;;;;;;14.10;7.00;;;;;;;;;;5066920;28;20059;-74
2023/05/29 07:48:08;;;;;;;17.42;6.32;;;;;;;;;;5064081;28;20040;-73
2023/05/29 07:50:34;;;;;;;13.82;6.10;;;;;;;;;;5060130;28;20028;-75
2023/05/29 07:53:01;;;;;;;12.18;5.47;;;;;;;;;;5072977;28;20075;-74
2023/05/29 07:55:27;;;;;;;12.35;5.53;;;;;;;;;;5059580;28;20027;-75
2023/05/29 07:57:53;;;;;;;14.63;5.60;;;;;;;;;;5055377;28;20448;-74
2023/05/29 08:00:19;;;;;;;18.35;6.43;;;;;;;;;;5061679;28;20036;-74
2023/05/29 08:02:45;;;;;;;11.50;5.03;;;;;;;;;;5058088;28;20525;-73
2023/05/29 08:05:12;;;;;;;18.08;5.22;;;;;;;;;;5071917;28;20071;-74
2023/05/29 08:07:38;;;;;;;11.98;5.30;;;;;;;;;;5062909;28;20480;-74
2023/05/29 08:10:07;;;;;;;10.43;5.05;;;;;;;;;;5064899;28;20032;-74
2023/05/29 08:12:35;;;;;;;9.43;5.00;;;;;;;;;;5056423;28;20033;-74
2023/05/29 08:15:01;;;;;;;11.95;4.53;;;;;;;;;;5055027;28;20150;-74
2023/05/29 08:17:27;;;;;;;8.02;4.18;;;;;;;;;;5059319;28;20021;-74
2023/05/29 08:19:54;;;;;;;7.70;4.70;;;;;;;;;;5064848;28;20367;-74
2023/05/29 08:22:22;;;;;;;11.98;4.47;;;;;;;;;;5058915;28;20104;-74
2023/05/29 08:24:48;;;;;;;8.80;4.32;;;;;;;;;;5058446;28;20105;-73
2023/05/29 08:27:14;;;;;;;13.70;5.10;;;;;;;;;;5062705;28;20044;-74
2023/05/29 08:29:40;;;;;;;12.00;5.22;;;;;;;;;;5057304;28;20036;-74
2023/05/29 08:32:06;;;;;;;10.70;4.55;;;;;;;;;;5057854;28;20108;-75
2023/05/29 08:34:32;;;;;;;9.88;4.30;;;;;;;;;;5056841;28;20413;-74
2023/05/29 08:36:59;;;;;;;10.65;3.88;;;;;;;;;;5061392;28;20031;-74
2023/05/29 08:39:25;;;;;;;7.90;3.85;;;;;;;;;;5080040;28;20021;-74
2023/05/29 08:41:52;;;;;;;8.15;3.65;;;;;;;;;;5059276;28;20094;-74
2023/05/29 08:44:22;;;;;;;7.80;3.60;;;;;;;;;;5057564;28;20147;-73
2023/05/29 08:46:50;;;;;;;9.75;3.78;;;;;;;;;;5058340;28;20025;-74
2023/05/29 08:49:18;;;;;;;18.63;8.68;;;;;;;;;;5062656;28;20028;-74
2023/05/29 08:51:45;;;;;;;7.47;5.45;;;;;;;;;;5062509;28;20036;-74
2023/05/29 08:54:12;;;;;;;14.50;6.75;;;;;;;;;;5062811;28;20057;-74
2023/05/29 08:56:39;;;;;;;9.93;4.80;;;;;;;;;;5064540;28;20052;-74
2023/05/29 08:59:06;;;;;;;10.27;3.65;;;;;;;;;;5063565;28;20021;-74
2023/05/29 09:01:34;;;;;;;8.38;3.88;;;;;;;;;;5056347;28;20100;-74
2023/05/29 09:04:01;;;;;;;6.60;3.88;;;;;;;;;;5066478;28;20115;-75
2023/05/29 09:06:27;;;;;;;6.78;4.57;;;;;;;;;;5060410;28;20025;-74
2023/05/29 09:08:54;;;;;;;10.00;4.95;;;;;;;;;;5065614;28;20024;-73
2023/05/29 09:11:21;;;;;;;5.95;4.20;;;;;;;;;;5056094;28;20033;-74
2023/05/29 09:13:48;;;;;;;10.00;3.78;;;;;;;;;;5058638;28;20028;-74
2023/05/29 09:16:16;;;;;;;6.85;3.17;;;;;;;;;;5064391;28;20024;-75
2023/05/29 09:18:45;;;;;;;8.32;4.13;;;;;;;;;;5065685;28;20023;-74
2023/05/29 09:21:17;;;;;;;10.32;3.47;;;;;;;;;;5063147;28;20044;-74
2023/05/29 09:23:43;;;;;;;8.25;3.95;;;;;;;;;;5055371;28;20001;-74
2023/05/29 09:26:14;;;;;;;9.00;3.95;;;;;;;;;;5063702;28;20033;-74
2023/05/29 09:28:41;;;;;;;8.20;3.60;;;;;;;;;;5057038;28;20078;-75
2023/05/29 09:31:16;;;;;;;6.30;3.60;;;;;;;;;;5063448;28;20054;-74
2023/05/29 09:33:50;;;;;;;16.75;6.72;;;;;;;;;;5059577;28;20028;-74
2023/05/29 09:36:23;;;;;;;9.73;4.90;;;;;;;;;;5060232;28;20116;-75
2023/05/29 09:38:50;;;;;;;7.40;3.58;;;;;;;;;;5060548;28;20025;-74
2023/05/29 09:41:23;;;;;;;10.18;4.63;;;;;;;;;;5058861;28;20248;-74
2023/05/29 09:43:50;;;;;;;9.35;4.13;;;;;;;;;;5060929;28;20021;-75
2023/05/29 09:46:17;;;;;;;7.32;3.47;;;;;;;;;;5059228;28;20107;-74
2023/05/29 09:48:44;;;;;;;6.75;3.42;;;;;;;;;;5061136;28;20024;-74
2023/05/29 09:51:23;;;;;;;10.07;3.72;;;;;;;;;;5059733;28;20504;-74
2023/05/29 09:53:50;;;;;;;10.00;3.72;;;;;;;;;;5054287;28;20108;-74
2023/05/29 09:56:17;;;;;;;11.48;3.78;;;;;;;;;;5062852;28;20060;-74
2023/05/29 09:58:46;;;;;;;10.45;3.42;;;;;;;;;;5067604;28;20390;-75
2023/05/29 10:01:15;;;;;;;6.90;3.40;;;;;;;;;;5066516;28;20032;-73
2023/05/29 10:03:42;;;;;;;8.40;3.08;;;;;;;;;;5056435;28;20111;-74
2023/05/29 10:06:11;;;;;;;4.90;2.67;;;;;;;;;;5062841;28;20039;-74
2023/05/29 10:08:39;;;;;;;6.93;3.50;;;;;;;;;;5056922;28;20112;-74
2023/05/29 10:11:09;;;;;;;11.07;3.25;;;;;;;;;;5063943;28;20454;-74
2023/05/29 10:13:36;;;;;;;7.10;3.50;;;;;;;;;;5061844;28;20029;-74
2023/05/29 10:16:04;;;;;;;7.35;3.15;;;;;;;;;;5053539;28;20679;-73
2023/05/29 10:18:39;;;;;;;6.05;3.20;;;;;;;;;;5060316;28;20465;-76
2023/05/29 10:21:08;;;;;;;8.00;3.38;;;;;;;;;;5057920;28;20030;-74
2023/05/29 10:23:35;;;;;;;9.82;3.30;;;;;;;;;;5062430;28;20479;-74
2023/05/29 10:26:21;;;;;;;6.90;3.17;;;;;;;;;;5055977;28;20060;-74
2023/05/29 10:28:51;;;;;;;9.60;3.20;;;;;;;;;;5065450;28;20070;-74
2023/05/29 10:31:24;;;;;;;7.88;3.17;;;;;;;;;;5059909;28;20052;-75
2023/05/29 10:33:50;;;;;;;6.40;3.03;;;;;;;;;;5056262;28;20021;-75
2023/05/29 10:36:24;;;;;;;8.77;3.00;;;;;;;;;;5058226;28;20021;-74
2023/05/29 10:38:51;;;;;;;7.13;3.25;;;;;;;;;;5059460;28;20031;-76
2023/05/29 10:41:26;;;;;;;7.28;3.58;;;;;;;;;;5059099;28;20036;-75
2023/05/29 10:43:56;;;;;;;8.85;2.83;;;;;;;;;;5061212;28;20072;-76
2023/05/29 10:46:22;;;;;;;8.70;3.78;;;;;;;;;;5053350;28;20487;-75
2023/05/29 10:48:54;;;;;;;7.82;3.63;;;;;;;;;;5057755;28;20120;-74
2023/05/29 10:51:28;;;;;;;7.78;3.28;;;;;;;;;;5057300;28;20037;-75
2023/05/29 10:53:54;;;;;;;12.63;3.40;;;;;;;;;;5058621;28;20024;-75
2023/05/29 10:56:28;;;;;;;9.32;3.70;;;;;;;;;;5054765;28;20707;-74
2023/05/29 10:58:55;;;;;;;7.05;3.50;;;;;;;;;;5058607;28;20046;-74
2023/05/29 11:01:23;;;;;;;6.60;3.00;;;;;;;;;;5078949;28;20036;-75
2023/05/29 11:03:49;;;;;;;10.77;4.10;;;;;;;;;;5064776;28;20332;-75
2023/05/29 11:06:25;;;;;;;5.10;2.58;;;;;;;;;;5057663;28;20025;-75
2023/05/29 11:08:55;;;;;;;7.07;3.25;;;;;;;;;;5054141;28;20524;-74
2023/05/29 11:11:27;;;;;;;6.15;3.10;;;;;;;;;;5063997;28;20037;-74
2023/05/29 11:13:54;;;;;;;8.82;3.33;;;;;;;;;;5072913;28;20566;-75
2023/05/29 11:16:29;;;;;;;12.57;3.67;;;;;;;;;;5064234;28;20028;-75
2023/05/29 11:18:54;;;;;;;;;;;;;;;;;;5065085;28;20070;-75
2023/05/29 11:21:24;;;;;;;6.45;3.05;;;;;;;;;;5064785;28;20095;-75
2023/05/29 11:23:52;;;;;;;6.35;3.00;;;;;;;;;;5068151;28;20036;-74
2023/05/29 11:26:18;;;;;;;6.50;3.28;;;;;;;;;;5067093;28;20485;-75
2023/05/29 11:28:45;;;;;;;7.03;3.42;;;;;;;;;;5056660;28;20482;-75
2023/05/29 11:31:12;;;;;;;7.40;3.22;;;;;;;;;;5068341;28;20554;-75
2023/05/29 11:33:41;;;;;;;11.88;3.22;;;;;;;;;;5062825;28;20032;-74
2023/05/29 11:36:10;;;;;;;6.53;2.97;;;;;;;;;;5065181;28;20095;-75
2023/05/29 11:38:36;;;;;;;4.32;2.90;;;;;;;;;;5062556;28;20029;-75
2023/05/29 11:41:03;;;;;;;10.75;3.45;;;;;;;;;;5054703;28;20035;-75
2023/05/29 11:43:29;;;;;;;14.15;4.00;;;;;;;;;;5061325;28;20025;-74
2023/05/29 11:45:55;;;;;;;10.20;3.60;;;;;;;;;;5074532;28;20008;-75
2023/05/29 11:48:23;;;;;;;4.85;3.10;;;;;;;;;;5059159;28;20051;-74
2023/05/29 11:50:49;;;;;;;6.45;3.13;;;;;;;;;;5058601;28;20078;-75
2023/05/29 11:53:16;;;;;;;8.38;3.50;;;;;;;;;;5060132;28;20021;-74
2023/05/29 11:55:42;;;;;;;8.95;3.63;;;;;;;;;;5058654;28;20083;-74
2023/05/29 11:58:08;;;;;;;10.27;4.13;;;;;;;;;;5057280;28;20020;-75
2023/05/29 12:00:38;;;;;;;7.38;3.25;;;;;;;;;;5057038;28;20024;-75
2023/05/29 12:03:05;;;;;;;8.80;3.47;;;;;;;;;;5068820;28;20043;-75
2023/05/29 12:05:49;;;;;;;7.10;3.60;;;;;;;;;;5069732;28;20043;-74
2023/05/29 12:08:15;;;;;;;8.82;4.05;;;;;;;;;;5070046;28;20025;-74
2023/05/29 12:10:51;;;;;;;7.45;3.00;;;;;;;;;;5065321;28;20059;-74
2023/05/29 12:13:19;;;;;;;8.38;2.75;;;;;;;;;;5058923;28;20037;-74
2023/05/29 12:15:46;;;;;;;7.15;3.05;;;;;;;;;;5064188;28;20017;-74
2023/05/29 12:18:12;;;;;;;11.82;3.42;;;;;;;;;;5070529;28;20031;-75
2023/05/29 12:20:38;;;;;;;10.10;3.78;;;;;;;;;;5061566;28;20017;-74
2023/05/29 12:23:05;;;;;;;28.25;5.95;;;;;;;;;;5065237;28;20410;-74
2023/05/29 12:25:31;;;;;;;7.60;3.00;;;;;;;;;;5070881;28;20036;-75
2023/05/29 12:27:58;;;;;;;10.60;3.95;;;;;;;;;;5057517;28;20065;-75
2023/05/29 12:30:25;;;;;;;7.70;3.00;;;;;;;;;;5056310;28;20045;-74
2023/05/29 12:32:52;;;;;;;11.18;3.33;;;;;;;;;;5066465;28;20055;-75
2023/05/29 12:35:19;;;;;;;6.50;2.72;;;;;;;;;;5061580;28;20082;-75
2023/05/29 12:37:50;;;;;;;19.58;4.25;;;;;;;;;;5052608;28;20425;-75
2023/05/29 12:40:17;;;;;;;11.20;3.08;;;;;;;;;;5056965;28;20667;-74
2023/05/29 12:42:43;;;;;;;8.90;3.30;;;;;;;;;;5055956;28;20086;-75
2023/05/29 12:45:10;;;;;;;5.07;3.00;;;;;;;;;;5061264;28;20039;-75
2023/05/29 12:47:36;;;;;;;9.05;3.55;;;;;;;;;;5058302;28;20027;-75
2023/05/29 12:50:20;;;;;;;6.43;3.50;;;;;;;;;;5052051;28;20056;-75
2023/05/29 12:52:46;;;;;;;6.90;2.90;;;;;;;;;;5066820;28;20017;-75
2023/05/29 12:55:13;;;;;;;7.60;3.35;;;;;;;;;;5057248;28;20075;-75
2023/05/29 12:57:40;;;;;;;7.30;2.92;;;;;;;;;;5057826;28;20021;-75
2023/05/29 13:00:09;;;;;;;11.75;3.78;;;;;;;;;;5062970;28;20021;-74
2023/05/29 13:02:35;;;;;;;7.18;3.53;;;;;;;;;;5052852;28;20425;-74
2023/05/29 13:05:01;;;;;;;8.73;3.70;;;;;;;;;;5060467;28;20040;-75
2023/05/29 13:07:28;;;;;;;9.02;3.65;;;;;;;;;;5065231;28;20021;-75
2023/05/29 13:09:54;;;;;;;8.07;3.50;;;;;;;;;;5059953;28;20051;-74
2023/05/29 13:12:21;;;;;;;7.65;3.13;;;;;;;;;;5065003;28;20032;-74
2023/05/29 13:14:47;;;;;;;6.05;3.20;;;;;;;;;;5067297;28;20363;-75
2023/05/29 13:17:13;;;;;;;7.65;4.22;;;;;;;;;;5055464;28;20033;-74
2023/05/29 13:19:39;;;;;;;7.13;3.42;;;;;;;;;;5058766;28;20391;-75
2023/05/29 13:22:05;;;;;;;8.25;3.55;;;;;;;;;;5067019;28;20031;-75
2023/05/29 13:24:31;;;;;;;10.68;3.72;;;;;;;;;;5065915;28;20087;-74
2023/05/29 13:27:00;;;;;;;5.35;3.22;;;;;;;;;;5063479;28;20474;-75
2023/05/29 13:29:26;;;;;;;10.23;3.28;;;;;;;;;;5064151;28;20040;-75
2023/05/29 13:31:53;;;;;;;7.95;3.63;;;;;;;;;;5062728;28;20075;-75
2023/05/29 13:34:19;;;;;;;8.73;3.63;;;;;;;;;;5063157;28;20025;-75
2023/05/29 13:36:45;;;;;;;6.25;3.70;;;;;;;;;;5068954;28;20024;-76
2023/05/29 13:39:11;;;;;;;5.88;3.05;;;;;;;;;;5074825;28;20370;-76
2023/05/29 13:41:37;;;;;;;6.28;3.15;;;;;;;;;;5067245;28;20040;-76
2023/05/29 13:44:04;;;;;;;7.35;3.17;;;;;;;;;;5070839;28;20035;-75
2023/05/29 13:46:30;;;;;;;8.10;3.50;;;;;;;;;;5069913;28;20544;-76
2023/05/29 13:48:56;;;;;;;8.40;3.78;;;;;;;;;;5062029;28;20086;-75
2023/05/29 13:51:22;;;;;;;11.70;3.58;;;;;;;;;;5064704;28;20035;-75
2023/05/29 13:53:48;;;;;;;8.00;3.45;;;;;;;;;;5070316;28;20273;-76
2023/05/29 13:56:14;;;;;;;8.82;3.80;;;;;;;;;;5063218;28;20084;-75
2023/05/29 13:58:41;;;;;;;8.75;3.90;;;;;;;;;;5061333;28;20024;-76
2023/05/29 14:01:07;;;;;;;9.45;3.40;;;;;;;;;;5060359;28;20110;-76
2023/05/29 14:03:33;;;;;;;8.50;3.35;;;;;;;;;;5058250;28;20028;-76
2023/05/29 14:05:59;;;;;;;7.53;3.60;;;;;;;;;;5063607;28;20040;-76
2023/05/29 14:08:25;;;;;;;8.77;3.20;;;;;;;;;;5063154;28;20035;-77
2023/05/29 14:10:52;;;;;;;6.82;3.33;;;;;;;;;;5060751;28;20025;-75
2023/05/29 14:13:18;;;;;;;11.70;4.05;;;;;;;;;;5066247;28;20046;-76
2023/05/29 14:15:44;;;;;;;8.48;3.50;;;;;;;;;;5063368;28;20028;-76
2023/05/29 14:18:10;;;;;;;8.73;3.45;;;;;;;;;;5060049;28;20032;-76
2023/05/29 14:20:36;;;;;;;7.40;3.45;;;;;;;;;;5070105;28;20086;-76
2023/05/29 14:23:03;;;;;;;8.02;3.13;;;;;;;;;;5060701;28;20102;-76
2023/05/29 14:25:29;;;;;;;6.93;3.00;;;;;;;;;;5080720;28;20667;-76
2023/05/29 14:27:55;;;;;;;9.02;3.65;;;;;;;;;;5053615;28;20420;-76
2023/05/29 14:30:21;;;;;;;8.73;3.67;;;;;;;;;;5072064;28;20502;-76
2023/05/29 14:32:48;;;;;;;8.32;3.13;;;;;;;;;;5059217;28;20028;-76
2023/05/29 14:35:14;;;;;;;8.07;3.90;;;;;;;;;;5057565;28;20446;-77
2023/05/29 14:37:40;;;;;;;8.88;3.13;;;;;;;;;;5065221;28;20020;-75